createdAt,value
2023-04-05T00:00:01.599Z,0.90
2023-04-05T00:02:29.993Z,0.90
2023-04-05T00:04:58.533Z,1.00
2023-04-05T00:07:26.585Z,1.00
2023-04-05T00:09:53.983Z,0.90
2023-04-05T00:12:22.276Z,0.80
2023-04-05T00:14:49.481Z,0.90
2023-04-05T00:17:17.060Z,0.80
2023-04-05T00:19:45.174Z,0.80
2023-04-05T00:22:12.181Z,0.90
2023-04-05T00:24:42.065Z,0.90
2023-04-05T00:27:09.355Z,0.90
2023-04-05T00:29:36.411Z,0.90
2023-04-05T00:32:04.802Z,1.00
2023-04-05T00:34:33.813Z,0.90
2023-04-05T00:37:01.214Z,0.70
2023-04-05T00:39:28.592Z,0.60
2023-04-05T00:41:56.289Z,0.60
2023-04-05T00:44:23.308Z,0.60
2023-04-05T00:46:51.167Z,0.70
2023-04-05T00:49:18.657Z,0.70
2023-04-05T00:51:45.977Z,0.80
2023-04-05T00:54:14.122Z,0.60
2023-04-05T00:56:41.175Z,0.70
2023-04-05T00:59:08.199Z,0.70
2023-04-05T01:01:38.083Z,0.60
2023-04-05T01:04:06.555Z,0.50
2023-04-05T01:06:43.273Z,0.70
2023-04-05T01:09:10.297Z,0.50
2023-04-05T01:11:39.398Z,0.40
2023-04-05T01:14:06.790Z,0.30
2023-04-05T01:16:33.849Z,0.30
2023-04-05T01:19:01.023Z,0.20
2023-04-05T01:21:40.386Z,0.20
2023-04-05T01:24:14.993Z,0.20
2023-04-05T01:27:22.159Z,0.20
2023-04-05T01:30:07.785Z,0.10
2023-04-05T01:32:53.546Z,0.40
2023-04-05T01:35:38.758Z,0.40
2023-04-05T01:38:07.413Z,0.40
2023-04-05T01:40:35.993Z,0.20
2023-04-05T01:43:03.390Z,0.10
2023-04-05T01:45:30.318Z,0.10
2023-04-05T01:48:17.408Z,0.10
2023-04-05T01:51:04.408Z,0.10
2023-04-05T01:53:32.714Z,0.10
2023-04-05T01:56:01.013Z,0.00
2023-04-05T01:58:30.512Z,-0.20
2023-04-05T02:00:57.851Z,-0.10
2023-04-05T02:03:25.070Z,0.20
2023-04-05T02:05:53.838Z,0.20
2023-04-05T02:08:20.969Z,-0.10
2023-04-05T02:10:49.022Z,-0.30
2023-04-05T02:13:16.132Z,-0.20
2023-04-05T02:15:48.548Z,-0.10
2023-04-05T02:18:16.251Z,0.00
2023-04-05T02:20:43.267Z,-0.10
2023-04-05T02:23:10.376Z,-0.10
2023-04-05T02:25:37.345Z,-0.30
2023-04-05T02:28:04.963Z,-0.50
2023-04-05T02:30:31.940Z,-0.30
2023-04-05T02:32:58.938Z,-0.10
2023-04-05T02:35:27.510Z,-0.30
2023-04-05T02:37:54.649Z,-0.40
2023-04-05T02:40:22.902Z,-0.30
2023-04-05T02:42:49.850Z,-0.30
2023-04-05T02:45:18.630Z,-0.50
2023-04-05T02:47:46.644Z,-0.50
2023-04-05T02:50:14.378Z,-0.50
2023-04-05T02:52:48.082Z,0.60
2023-04-05T02:55:16.191Z,-0.20
2023-04-05T02:57:45.921Z,-0.40
2023-04-05T03:00:32.106Z,-0.40
2023-04-05T03:03:00.703Z,-0.50
2023-04-05T03:05:27.687Z,-0.60
2023-04-05T03:07:54.855Z,-0.50
2023-04-05T03:10:30.395Z,-0.40
2023-04-05T03:13:03.854Z,-0.50
2023-04-05T03:15:32.309Z,-0.60
2023-04-05T03:18:05.464Z,-0.50
2023-04-05T03:20:34.589Z,-0.50
2023-04-05T03:23:03.551Z,-0.40
2023-04-05T03:25:34.127Z,-0.50
2023-04-05T03:28:01.351Z,-0.60
2023-04-05T03:30:32.668Z,-0.70
2023-04-05T03:33:09.983Z,-0.80
2023-04-05T03:35:42.227Z,-0.90
2023-04-05T03:38:11.510Z,-0.80
2023-04-05T03:40:48.252Z,-0.80
2023-04-05T03:43:16.865Z,-0.80
2023-04-05T03:45:43.940Z,-0.90
2023-04-05T03:48:11.869Z,-0.70
2023-04-05T03:50:41.821Z,-0.80
2023-04-05T03:53:09.924Z,-0.80
2023-04-05T03:55:37.635Z,-0.90
2023-04-05T03:58:07.722Z,-1.10
2023-04-05T04:00:36.536Z,-1.00
2023-04-05T04:03:12.412Z,-0.90
2023-04-05T04:05:42.910Z,-0.90
2023-04-05T04:08:11.106Z,-1.00
2023-04-05T04:10:38.865Z,-0.90
2023-04-05T04:13:15.050Z,-0.70
2023-04-05T04:15:43.440Z,-0.80
2023-04-05T04:18:21.235Z,-1.00
2023-04-05T04:21:07.349Z,-1.00
2023-04-05T04:23:55.830Z,-1.10
2023-04-05T04:26:49.144Z,-1.00
2023-04-05T04:29:30.801Z,-1.10
2023-04-05T04:32:26.673Z,-1.00
2023-04-05T04:35:14.854Z,-0.90
2023-04-05T04:38:08.550Z,-0.90
2023-04-05T04:40:51.072Z,-1.00
2023-04-05T04:43:26.848Z,-1.10
2023-04-05T04:46:16.123Z,-1.20
2023-04-05T04:49:13.450Z,-1.00
2023-04-05T04:51:46.272Z,-1.00
2023-04-05T04:54:13.245Z,-1.10
2023-04-05T04:56:41.632Z,-1.10
2023-04-05T04:59:08.601Z,-0.90
2023-04-05T05:01:40.819Z,-0.80
2023-04-05T05:04:10.189Z,-0.60
2023-04-05T05:06:39.425Z,-0.70
2023-04-05T05:09:06.593Z,-0.80
2023-04-05T05:11:39.014Z,-0.80
2023-04-05T05:14:08.808Z,-0.70
2023-04-05T05:16:36.256Z,-0.80
2023-04-05T05:19:03.199Z,-0.80
2023-04-05T05:21:39.857Z,-0.80
2023-04-05T05:24:08.690Z,-0.80
2023-04-05T05:26:36.612Z,-0.60
2023-04-05T05:29:04.059Z,-0.50
2023-04-05T05:31:34.247Z,-0.40
2023-04-05T05:34:01.211Z,-0.50
2023-04-05T05:36:28.198Z,-0.50
2023-04-05T05:38:55.230Z,-0.20
2023-04-05T05:41:22.511Z,-0.10
2023-04-05T05:43:49.573Z,-0.10
2023-04-05T05:46:17.182Z,-0.10
2023-04-05T05:48:44.931Z,-0.10
2023-04-05T05:51:11.987Z,0.00
2023-04-05T05:53:39.669Z,0.10
2023-04-05T05:56:06.868Z,0.10
2023-04-05T05:58:33.771Z,0.10
2023-04-05T06:01:03.765Z,0.30
2023-04-05T06:03:30.938Z,0.40
2023-04-05T06:05:58.865Z,0.50
2023-04-05T06:08:27.947Z,0.50
2023-04-05T06:10:55.225Z,0.70
2023-04-05T06:13:22.139Z,0.70
2023-04-05T06:15:49.267Z,0.60
2023-04-05T06:18:16.890Z,0.70
2023-04-05T06:20:44.689Z,0.90
2023-04-05T06:23:11.931Z,0.90
2023-04-05T06:25:39.255Z,1.00
2023-04-05T06:28:06.784Z,1.10
2023-04-05T06:30:33.898Z,1.40
2023-04-05T06:33:00.894Z,1.60
2023-04-05T06:35:27.990Z,1.60
2023-04-05T06:37:54.991Z,1.70
2023-04-05T06:40:21.942Z,2.00
2023-04-05T06:42:48.951Z,2.10
2023-04-05T06:45:21.407Z,2.20
2023-04-05T06:47:49.018Z,2.30
2023-04-05T06:50:16.150Z,2.50
2023-04-05T06:52:43.177Z,2.70
2023-04-05T06:55:10.467Z,2.80
2023-04-05T06:57:37.467Z,3.00
2023-04-05T07:00:10.323Z,3.20
2023-04-05T07:02:37.311Z,3.40
2023-04-05T07:05:06.161Z,3.60
2023-04-05T07:07:36.349Z,3.70
2023-04-05T07:10:03.344Z,3.80
2023-04-05T07:12:30.440Z,3.80
2023-04-05T07:14:57.424Z,3.90
2023-04-05T07:17:24.459Z,4.00
2023-04-05T07:19:51.514Z,4.00
2023-04-05T07:22:18.556Z,3.90
2023-04-05T07:24:46.711Z,3.90
2023-04-05T07:27:13.713Z,4.10
2023-04-05T07:29:44.544Z,4.70
2023-04-05T07:32:12.429Z,4.80
2023-04-05T07:34:39.307Z,4.90
2023-04-05T07:37:06.686Z,5.00
2023-04-05T07:39:33.689Z,5.00
2023-04-05T07:42:00.759Z,4.90
2023-04-05T07:44:27.734Z,5.00
2023-04-05T07:46:54.734Z,5.10
2023-04-05T07:49:26.081Z,5.10
2023-04-05T07:51:57.126Z,5.30
2023-04-05T07:54:24.161Z,5.30
2023-04-05T07:56:51.901Z,5.50
2023-04-05T07:59:18.996Z,5.80
2023-04-05T08:01:46.292Z,6.10
2023-04-05T08:04:13.315Z,6.50
2023-04-05T08:06:40.565Z,7.20
2023-04-05T08:09:09.143Z,7.80
2023-04-05T08:11:36.182Z,7.60
2023-04-05T08:14:03.181Z,7.60
2023-04-05T08:16:30.478Z,8.10
2023-04-05T08:18:57.486Z,8.40
2023-04-05T08:21:24.509Z,8.50
2023-04-05T08:23:51.579Z,9.10
2023-04-05T08:26:18.765Z,9.40
2023-04-05T08:28:46.054Z,9.60
2023-04-05T08:31:13.936Z,9.70
2023-04-05T08:33:41.074Z,9.90
2023-04-05T08:36:08.439Z,10.20
2023-04-05T08:38:35.903Z,11.10
2023-04-05T08:41:25.879Z,10.90
2023-04-05T08:44:02.691Z,10.40
2023-04-05T08:46:32.032Z,10.60
2023-04-05T08:48:59.216Z,11.70
2023-04-05T08:51:26.774Z,11.20
2023-04-05T08:53:54.132Z,11.30
2023-04-05T08:56:22.394Z,11.90
2023-04-05T08:58:56.579Z,12.90
2023-04-05T09:01:24.672Z,12.70
2023-04-05T09:03:52.214Z,12.60
2023-04-05T09:06:20.545Z,13.40
2023-04-05T09:08:48.041Z,13.70
2023-04-05T09:11:15.981Z,13.30
2023-04-05T09:13:43.040Z,14.50
2023-04-05T09:16:10.016Z,14.20
2023-04-05T09:18:37.007Z,13.00
2023-04-05T09:21:05.145Z,13.20
2023-04-05T09:23:33.871Z,14.60
2023-04-05T09:26:01.011Z,15.00
2023-04-05T09:28:40.751Z,13.80
2023-04-05T09:31:07.718Z,14.80
2023-04-05T09:33:34.812Z,15.60
2023-04-05T09:36:01.780Z,15.30
2023-04-05T09:38:44.396Z,16.60
2023-04-05T09:41:11.545Z,16.90
2023-04-05T09:43:39.417Z,16.60
2023-04-05T09:46:06.565Z,17.50
2023-04-05T09:48:49.591Z,17.60
2023-04-05T09:51:17.046Z,15.60
2023-04-05T09:54:00.121Z,15.10
2023-04-05T09:56:27.590Z,16.00
2023-04-05T09:58:59.827Z,16.20
2023-04-05T10:01:35.914Z,16.30
2023-04-05T10:04:03.370Z,17.10
2023-04-05T10:06:40.451Z,17.50
2023-04-05T10:09:08.263Z,17.00
2023-04-05T10:11:36.409Z,18.20
2023-04-05T10:14:07.589Z,18.00
2023-04-05T10:16:56.518Z,17.50
2023-04-05T10:19:29.053Z,18.10
2023-04-05T10:21:57.857Z,16.70
2023-04-05T10:24:27.737Z,17.70
2023-04-05T10:27:05.919Z,19.60
2023-04-05T10:29:42.961Z,19.00
2023-04-05T10:32:14.024Z,18.90
2023-04-05T10:34:51.273Z,18.60
2023-04-05T10:37:50.656Z,19.30
2023-04-05T10:40:18.220Z,20.40
2023-04-05T10:42:46.647Z,19.30
2023-04-05T10:45:18.040Z,16.20
2023-04-05T10:47:50.303Z,17.40
2023-04-05T10:50:22.830Z,18.50
2023-04-05T10:52:50.995Z,20.10
2023-04-05T10:55:18.393Z,20.70
2023-04-05T10:57:46.345Z,18.70
2023-04-05T11:00:13.811Z,18.70
2023-04-05T11:02:40.997Z,19.10
2023-04-05T11:05:28.009Z,19.80
2023-04-05T11:07:59.950Z,19.60
2023-04-05T11:10:27.711Z,18.50
2023-04-05T11:12:57.658Z,16.90
2023-04-05T11:15:30.665Z,17.60
2023-04-05T11:18:04.431Z,18.10
2023-04-05T11:20:43.931Z,18.80
2023-04-05T11:23:11.826Z,18.40
2023-04-05T11:25:42.247Z,17.60
2023-04-05T11:28:09.410Z,18.90
2023-04-05T11:30:49.323Z,18.00
2023-04-05T11:33:34.835Z,17.90
2023-04-05T11:36:04.494Z,17.00
2023-04-05T11:38:31.531Z,17.30
2023-04-05T11:41:11.862Z,18.50
2023-04-05T11:43:38.948Z,19.90
2023-04-05T11:46:06.164Z,20.30
2023-04-05T11:48:34.528Z,21.30
2023-04-05T11:51:05.837Z,22.50
2023-04-05T11:53:32.806Z,22.10
2023-04-05T11:56:06.440Z,22.10
2023-04-05T11:58:33.398Z,22.10
2023-04-05T12:01:01.252Z,22.10
2023-04-05T12:03:31.559Z,21.40
2023-04-05T12:05:59.593Z,20.30
2023-04-05T12:08:42.243Z,19.80
2023-04-05T12:11:10.771Z,19.00
2023-04-05T12:13:38.279Z,19.00
2023-04-05T12:16:06.316Z,18.90
2023-04-05T12:18:34.846Z,20.60
2023-04-05T12:21:04.903Z,20.20
2023-04-05T12:23:33.610Z,20.70
2023-04-05T12:26:00.951Z,21.70
2023-04-05T12:28:47.881Z,22.80
2023-04-05T12:31:14.871Z,22.10
2023-04-05T12:33:43.665Z,22.80
2023-04-05T12:36:11.882Z,21.50
2023-04-05T12:38:38.854Z,23.30
2023-04-05T12:41:06.099Z,24.90
2023-04-05T12:43:42.933Z,24.70
2023-04-05T12:46:10.963Z,26.10
2023-04-05T12:48:38.594Z,24.90
2023-04-05T12:51:14.216Z,23.40
2023-04-05T12:53:45.008Z,25.60
2023-04-05T12:56:11.944Z,25.70
2023-04-05T12:58:40.276Z,26.80
2023-04-05T13:01:07.510Z,26.50
2023-04-05T13:03:34.513Z,26.20
2023-04-05T13:06:01.439Z,26.40
2023-04-05T13:08:28.375Z,27.50
2023-04-05T13:10:57.840Z,26.40
2023-04-05T13:13:25.452Z,25.00
2023-04-05T13:15:52.802Z,27.10
2023-04-05T13:18:19.829Z,26.20
2023-04-05T13:20:46.831Z,26.70
2023-04-05T13:23:13.772Z,23.10
2023-04-05T13:25:42.100Z,24.30
2023-04-05T13:28:10.026Z,22.70
2023-04-05T13:30:37.023Z,22.50
2023-04-05T13:33:04.788Z,24.20
2023-04-05T13:35:32.092Z,24.70
2023-04-05T13:38:01.100Z,23.20
2023-04-05T13:40:29.556Z,23.40
2023-04-05T13:42:56.497Z,24.60
2023-04-05T13:45:23.453Z,26.40
2023-04-05T13:47:50.500Z,27.20
2023-04-05T13:50:17.458Z,25.70
2023-04-05T13:52:44.507Z,23.80
2023-04-05T13:55:11.506Z,24.80
2023-04-05T13:57:38.493Z,26.70
2023-04-05T14:00:06.486Z,29.30
2023-04-05T14:02:39.687Z,30.10
2023-04-05T14:05:07.188Z,28.50
2023-04-05T14:07:34.600Z,30.10
2023-04-05T14:10:01.655Z,29.10
2023-04-05T14:12:28.856Z,27.40
2023-04-05T14:14:55.884Z,25.80
2023-04-05T14:17:26.152Z,24.60
2023-04-05T14:19:53.341Z,25.00
2023-04-05T14:22:21.708Z,24.60
2023-04-05T14:24:48.793Z,25.00
2023-04-05T14:27:15.770Z,25.80
2023-04-05T14:29:44.235Z,26.70
2023-04-05T14:32:11.253Z,23.50
2023-04-05T14:34:38.189Z,25.10
2023-04-05T14:37:06.898Z,22.30
2023-04-05T14:39:33.851Z,24.20
2023-04-05T14:42:01.029Z,23.00
2023-04-05T14:44:28.043Z,24.30
2023-04-05T14:46:54.991Z,24.20
2023-04-05T14:49:22.069Z,25.30
2023-04-05T14:51:49.107Z,26.90
2023-04-05T14:54:16.178Z,24.20
2023-04-05T14:56:43.294Z,23.70
2023-04-05T14:59:10.383Z,24.90
2023-04-05T15:01:37.870Z,27.00
2023-04-05T15:04:04.869Z,25.60
2023-04-05T15:06:31.792Z,25.80
2023-04-05T15:08:59.592Z,24.40
2023-04-05T15:11:27.145Z,24.80
2023-04-05T15:13:55.184Z,24.40
2023-04-05T15:16:22.168Z,23.20
2023-04-05T15:18:51.193Z,23.00
2023-04-05T15:21:18.133Z,23.90
2023-04-05T15:23:45.085Z,25.60
2023-04-05T15:26:12.692Z,27.40
2023-04-05T15:28:39.670Z,27.50
2023-04-05T15:31:06.658Z,26.70
2023-04-05T15:33:33.684Z,27.60
2023-04-05T15:36:00.781Z,27.20
2023-04-05T15:38:27.914Z,28.90
2023-04-05T15:40:57.005Z,28.50
2023-04-05T15:43:24.543Z,29.20
2023-04-05T15:45:51.740Z,25.10
2023-04-05T15:48:18.756Z,25.70
2023-04-05T15:50:45.818Z,22.80
2023-04-05T15:53:12.761Z,22.90
2023-04-05T15:55:39.698Z,25.10
2023-04-05T15:58:07.586Z,26.40
2023-04-05T16:00:34.748Z,25.20
2023-04-05T16:03:02.364Z,23.70
2023-04-05T16:05:29.312Z,25.40
2023-04-05T16:07:56.304Z,25.80
2023-04-05T16:10:23.354Z,26.30
2023-04-05T16:12:52.527Z,26.00
2023-04-05T16:15:19.581Z,24.00
2023-04-05T16:17:46.972Z,24.00
2023-04-05T16:20:13.924Z,25.10
2023-04-05T16:22:41.593Z,25.80
2023-04-05T16:25:08.649Z,25.50
2023-04-05T16:27:37.139Z,24.60
2023-04-05T16:30:04.212Z,24.00
2023-04-05T16:32:31.251Z,22.40
2023-04-05T16:34:58.261Z,20.90
2023-04-05T16:37:25.487Z,19.80
2023-04-05T16:39:52.606Z,18.10
2023-04-05T16:42:19.577Z,16.80
2023-04-05T16:44:46.429Z,14.90
2023-04-05T16:47:13.392Z,13.90
2023-04-05T16:49:40.473Z,13.30
2023-04-05T16:52:07.643Z,12.30
2023-04-05T16:54:34.580Z,11.40
2023-04-05T16:57:02.260Z,10.90
2023-04-05T16:59:29.242Z,10.60
2023-04-05T17:01:56.279Z,10.50
2023-04-05T17:04:23.256Z,10.60
2023-04-05T17:06:51.617Z,10.60
2023-04-05T17:09:19.463Z,10.90
2023-04-05T17:11:46.448Z,11.70
2023-04-05T17:14:13.492Z,11.50
2023-04-05T17:16:41.049Z,11.30
2023-04-05T17:19:08.026Z,11.20
2023-04-05T17:21:35.649Z,11.20
2023-04-05T17:24:03.292Z,11.40
2023-04-05T17:26:30.390Z,11.20
2023-04-05T17:28:57.411Z,11.20
2023-04-05T17:31:24.495Z,10.90
2023-04-05T17:33:51.574Z,10.60
2023-04-05T17:36:18.518Z,10.50
2023-04-05T17:38:45.968Z,10.20
2023-04-05T17:41:12.852Z,9.80
2023-04-05T17:43:40.061Z,9.50
2023-04-05T17:46:09.344Z,9.30
2023-04-05T17:48:40.159Z,9.40
2023-04-05T17:51:07.674Z,9.20
2023-04-05T17:53:35.082Z,9.00
2023-04-05T17:56:02.261Z,8.80
2023-04-05T17:58:30.387Z,8.70
2023-04-05T18:00:57.366Z,8.50
2023-04-05T18:03:26.801Z,8.20
2023-04-05T18:05:54.558Z,8.10
2023-04-05T18:08:22.262Z,8.00
2023-04-05T18:10:50.789Z,7.90
2023-04-05T18:13:18.024Z,7.80
2023-04-05T18:15:45.052Z,7.70
2023-04-05T18:18:12.576Z,7.70
2023-04-05T18:20:40.556Z,7.90
2023-04-05T18:23:08.116Z,7.80
2023-04-05T18:25:35.765Z,7.40
2023-04-05T18:28:09.284Z,7.00
2023-04-05T18:30:45.584Z,6.80
2023-04-05T18:33:12.662Z,6.60
2023-04-05T18:35:41.069Z,6.60
2023-04-05T18:38:08.160Z,6.40
2023-04-05T18:40:35.065Z,6.20
2023-04-05T18:43:03.253Z,5.90
2023-04-05T18:45:31.906Z,5.80
2023-04-05T18:48:00.436Z,5.80
2023-04-05T18:50:30.010Z,6.00
2023-04-05T18:52:57.125Z,5.80
2023-04-05T18:55:24.121Z,5.70
2023-04-05T18:57:51.104Z,5.50
2023-04-05T19:00:18.456Z,5.40
2023-04-05T19:02:45.692Z,5.30
2023-04-05T19:05:12.863Z,5.20
2023-04-05T19:07:40.440Z,5.10
2023-04-05T19:10:07.714Z,5.00
2023-04-05T19:12:37.294Z,5.00
2023-04-05T19:15:05.325Z,4.80
2023-04-05T19:17:33.352Z,4.70
2023-04-05T19:20:00.373Z,4.60
2023-04-05T19:22:27.878Z,4.60
2023-04-05T19:24:55.560Z,4.60
2023-04-05T19:27:22.480Z,4.60
2023-04-05T19:29:49.497Z,4.40
2023-04-05T19:32:16.455Z,4.50
2023-04-05T19:34:43.541Z,4.70
2023-04-05T19:37:10.536Z,4.70
2023-04-05T19:39:37.516Z,4.50
2023-04-05T19:42:05.101Z,4.40
2023-04-05T19:44:51.226Z,4.40
2023-04-05T19:47:22.914Z,4.30
2023-04-05T19:49:51.237Z,4.40
2023-04-05T19:52:37.085Z,4.30
2023-04-05T19:55:22.900Z,4.30
2023-04-05T19:57:49.876Z,4.10
2023-04-05T20:00:31.235Z,3.90
2023-04-05T20:02:59.695Z,3.80
2023-04-05T20:05:44.904Z,4.00
2023-04-05T20:08:12.024Z,3.90
2023-04-05T20:10:40.517Z,3.60
2023-04-05T20:13:08.239Z,3.50
2023-04-05T20:15:37.027Z,3.60
2023-04-05T20:18:06.441Z,3.80
2023-04-05T20:20:36.082Z,3.90
2023-04-05T20:23:06.770Z,3.60
2023-04-05T20:25:39.256Z,3.40
2023-04-05T20:28:26.179Z,3.60
2023-04-05T20:30:56.092Z,3.60
2023-04-05T20:33:41.538Z,3.60
2023-04-05T20:36:11.968Z,3.60
2023-04-05T20:38:40.390Z,3.60
2023-04-05T20:41:09.885Z,3.60
2023-04-05T20:43:37.492Z,3.30
2023-04-05T20:46:06.578Z,3.40
2023-04-05T20:48:34.332Z,3.30
2023-04-05T20:51:02.604Z,3.20
2023-04-05T20:53:30.161Z,3.20
2023-04-05T20:55:59.177Z,3.10
2023-04-05T20:58:26.587Z,3.20
2023-04-05T21:00:54.526Z,3.20
2023-04-05T21:03:21.531Z,3.10
2023-04-05T21:05:48.788Z,3.10
2023-04-05T21:08:16.432Z,3.00
2023-04-05T21:10:43.345Z,3.00
2023-04-05T21:13:10.572Z,3.00
2023-04-05T21:15:38.208Z,2.90
2023-04-05T21:18:07.713Z,2.80
2023-04-05T21:20:37.977Z,2.80
2023-04-05T21:23:05.748Z,3.00
2023-04-05T21:25:32.751Z,2.90
2023-04-05T21:28:00.470Z,2.80
2023-04-05T21:30:28.364Z,2.60
2023-04-05T21:32:55.526Z,2.50
2023-04-05T21:35:22.710Z,2.60
2023-04-05T21:37:50.426Z,2.60
2023-04-05T21:40:17.669Z,2.60
2023-04-05T21:42:45.418Z,2.50
2023-04-05T21:45:13.230Z,2.50
2023-04-05T21:47:42.720Z,2.50
2023-04-05T21:50:09.848Z,2.60
2023-04-05T21:52:36.958Z,2.50
2023-04-05T21:55:04.497Z,2.50
2023-04-05T21:57:33.755Z,2.50
2023-04-05T22:00:01.265Z,2.50
2023-04-05T22:02:28.212Z,2.30
2023-04-05T22:04:55.080Z,2.40
2023-04-05T22:07:22.107Z,2.30
2023-04-05T22:09:49.015Z,2.30
2023-04-05T22:12:15.942Z,2.30
2023-04-05T22:14:42.898Z,2.10
2023-04-05T22:17:09.849Z,2.00
2023-04-05T22:19:36.892Z,2.30
2023-04-05T22:22:03.848Z,2.00
2023-04-05T22:24:30.889Z,2.00
2023-04-05T22:26:58.044Z,1.90
2023-04-05T22:29:26.543Z,1.80
2023-04-05T22:31:53.796Z,1.80
2023-04-05T22:34:22.285Z,1.90
2023-04-05T22:36:51.644Z,1.90
2023-04-05T22:39:18.934Z,1.90
2023-04-05T22:41:45.924Z,1.90
2023-04-05T22:44:13.045Z,1.90
2023-04-05T22:46:40.027Z,1.90
2023-04-05T22:49:07.298Z,1.80
2023-04-05T22:51:35.001Z,1.80
2023-04-05T22:54:01.904Z,1.70
2023-04-05T22:56:29.001Z,1.70
2023-04-05T22:58:55.946Z,1.70
2023-04-05T23:01:22.975Z,1.70
2023-04-05T23:03:49.877Z,1.70
2023-04-05T23:06:16.736Z,1.50
2023-04-05T23:08:43.642Z,1.60
2023-04-05T23:11:10.592Z,1.60
2023-04-05T23:13:37.533Z,1.60
2023-04-05T23:16:05.142Z,1.40
2023-04-05T23:18:32.244Z,1.40
2023-04-05T23:21:00.163Z,1.40
2023-04-05T23:23:27.207Z,1.30
2023-04-05T23:25:55.178Z,1.20
2023-04-05T23:28:22.119Z,1.10
2023-04-05T23:30:49.739Z,1.20
2023-04-05T23:33:16.753Z,1.10
2023-04-05T23:35:43.729Z,1.20
2023-04-05T23:38:13.305Z,1.10
2023-04-05T23:40:40.972Z,1.10
2023-04-05T23:43:08.472Z,1.10
2023-04-05T23:45:36.596Z,1.10
2023-04-05T23:48:06.082Z,1.00
2023-04-05T23:50:33.159Z,1.20
2023-04-05T23:53:02.484Z,1.10
2023-04-05T23:55:31.864Z,1.20
2023-04-05T23:58:00.262Z,1.10
